Time;durP1;ratioP1;P1;durP2;ratioP2;P2;SDS_P1;SDS_P2;PMS_P1;PMS_P2;Temp;Humidity;BMP_temperature;BMP_pressure;BME280_temperature;BME280_humidity;BME280_pressure;Samples;Min_cycle;Max_cycle;Signal;HPM_P1;HPM_P2
2022/10/12 00:01:12;;;;;;;8.98;6.70;;;;;;;14.60;100.00;99056.50;5072896;28;20498;-60
2022/10/12 00:03:38;;;;;;;8.68;6.20;;;;;;;14.60;100.00;99055.66;5093439;28;20043;-59
2022/10/12 00:06:06;;;;;;;9.27;6.47;;;;;;;14.56;100.00;99062.97;5086569;28;20032;-60
2022/10/12 00:08:32;;;;;;;9.25;6.10;;;;;;;14.45;100.00;99041.53;5093706;28;20031;-59
2022/10/12 00:10:58;;;;;;;10.93;6.32;;;;;;;14.51;100.00;99052.19;5074151;28;20028;-59
2022/10/12 00:13:23;;;;;;;9.52;6.35;;;;;;;14.61;100.00;99058.13;5076736;28;20042;-58
2022/10/12 00:15:49;;;;;;;13.93;6.82;;;;;;;14.58;100.00;99048.00;5092034;28;20509;-60
2022/10/12 00:18:14;;;;;;;10.55;6.97;;;;;;;14.53;100.00;99055.47;5089363;28;20513;-60
2022/10/12 00:20:40;;;;;;;11.32;6.18;;;;;;;14.55;100.00;99053.50;5089254;28;20110;-59
2022/10/12 00:23:06;;;;;;;12.18;7.05;;;;;;;14.25;100.00;99018.25;5094527;28;20573;-58
2022/10/12 00:25:35;;;;;;;9.88;6.40;;;;;;;14.43;100.00;99052.16;5073182;28;20028;-59
2022/10/12 00:28:00;;;;;;;9.63;6.13;;;;;;;14.44;100.00;99051.19;5096162;28;20066;-60
2022/10/12 00:30:26;;;;;;;9.40;6.20;;;;;;;14.38;100.00;99042.19;5088114;28;20768;-59
2022/10/12 00:32:51;;;;;;;10.80;6.68;;;;;;;14.49;100.00;99048.06;5092466;27;20031;-58
2022/10/12 00:35:17;;;;;;;10.05;6.50;;;;;;;14.15;100.00;98983.56;5074345;28;20035;-60
2022/10/12 00:37:42;;;;;;;10.35;6.05;;;;;;;14.52;100.00;99042.53;5085703;28;20124;-58
2022/10/12 00:40:08;;;;;;;11.98;6.18;;;;;;;14.49;100.00;99043.66;5085824;28;20032;-58
2022/10/12 00:42:33;;;;;;;10.77;6.50;;;;;;;14.38;100.00;99039.56;5084672;28;20074;-59
2022/10/12 00:44:59;;;;;;;9.90;6.60;;;;;;;14.40;100.00;99042.00;5065777;28;20111;-59
2022/10/12 00:47:25;;;;;;;9.93;6.80;;;;;;;14.51;100.00;99046.94;5096483;28;20032;-59
2022/10/12 00:49:58;;;;;;;9.38;6.00;;;;;;;14.45;100.00;99047.56;5074483;28;20453;-58
2022/10/12 00:52:30;;;;;;;12.60;6.50;;;;;;;14.13;100.00;98996.81;5086392;28;20020;-59
2022/10/12 00:54:55;;;;;;;7.93;6.22;;;;;;;14.47;100.00;99039.56;5075006;28;20028;-58
2022/10/12 00:57:21;;;;;;;7.57;5.60;;;;;;;14.53;100.00;99042.38;5074219;28;20385;-59
2022/10/12 00:59:51;;;;;;;8.50;5.57;;;;;;;14.45;100.00;99039.72;5087993;28;20414;-59
2022/10/12 01:02:17;;;;;;;9.63;6.18;;;;;;;14.49;100.00;99042.84;5082449;28;20039;-60
2022/10/12 01:04:43;;;;;;;11.20;6.65;;;;;;;14.45;100.00;99044.16;5093588;28;20595;-60
2022/10/12 01:07:09;;;;;;;8.73;6.15;;;;;;;14.46;100.00;99046.59;5088207;28;20032;-59
2022/10/12 01:09:34;;;;;;;9.27;6.00;;;;;;;14.47;100.00;99044.81;5090109;28;20119;-59
2022/10/12 01:12:02;;;;;;;8.73;5.75;;;;;;;14.43;100.00;99037.25;5091420;28;20537;-59
2022/10/12 01:14:28;;;;;;;10.45;5.68;;;;;;;14.24;100.00;99003.53;5095723;28;20414;-59
2022/10/12 01:17:21;;;;;;;10.27;6.00;;;;;;;14.26;100.00;98996.34;5075695;28;20085;-58
2022/10/12 01:20:24;;;;;;;12.27;5.80;;;;;;;14.57;100.00;99045.50;5083670;28;20101;-60
2022/10/12 01:23:10;;;;;;;9.70;5.88;;;;;;;14.56;100.00;99042.03;5092934;28;20477;-58
2022/10/12 01:25:57;;;;;;;9.35;5.93;;;;;;;14.51;100.00;99035.66;5075457;28;20050;-58
2022/10/12 01:29:01;;;;;;;9.32;5.97;;;;;;;14.43;100.00;99039.88;5093694;28;20030;-60
2022/10/12 01:31:50;;;;;;;9.85;5.82;;;;;;;14.17;100.00;98990.28;5087175;28;20140;-58
2022/10/12 01:34:26;;;;;;;9.50;5.90;;;;;;;14.45;100.00;99037.09;5074572;28;20056;-58
2022/10/12 01:37:02;;;;;;;8.10;6.15;;;;;;;14.53;100.00;99033.69;5081741;28;20095;-57
2022/10/12 01:39:34;;;;;;;8.35;5.82;;;;;;;14.42;100.00;99032.22;5096096;28;20027;-61
2022/10/12 01:42:03;;;;;;;8.55;5.90;;;;;;;14.40;100.00;99021.06;5090010;28;20024;-58
2022/10/12 01:44:31;;;;;;;7.80;5.28;;;;;;;14.24;100.00;99006.16;5089778;28;20024;-58
2022/10/12 01:46:57;;;;;;;9.77;5.63;;;;;;;14.39;100.00;99032.53;5089157;28;20581;-61
2022/10/12 01:49:28;;;;;;;14.90;6.25;;;;;;;14.38;100.00;99026.47;5089326;28;20099;-59
2022/10/12 01:52:15;;;;;;;10.57;6.07;;;;;;;14.37;100.00;99034.47;5084339;28;20024;-58
2022/10/12 01:54:41;;;;;;;10.50;6.25;;;;;;;14.35;100.00;99039.06;5092444;28;20027;-57
2022/10/12 01:57:31;;;;;;;9.10;5.88;;;;;;;14.39;100.00;99032.53;5089768;28;20084;-59
2022/10/12 02:00:01;;;;;;;11.30;6.38;;;;;;;14.35;100.00;99021.56;5091937;28;20035;-58
2022/10/12 02:02:31;;;;;;;9.98;6.20;;;;;;;14.15;100.00;98976.53;5090883;28;20043;-60
2022/10/12 02:05:03;;;;;;;7.47;5.65;;;;;;;14.34;100.00;99019.91;5111595;27;20044;-57
2022/10/12 02:07:49;;;;;;;7.82;5.63;;;;;;;14.29;100.00;99018.75;5090590;28;20064;-57
2022/10/12 02:10:28;;;;;;;9.30;5.30;;;;;;;14.35;100.00;99011.09;5091894;28;20489;-58
2022/10/12 02:12:54;;;;;;;10.55;5.55;;;;;;;14.35;100.00;99016.31;5081140;28;20031;-58
2022/10/12 02:15:20;;;;;;;10.30;5.53;;;;;;;14.06;100.00;98980.09;5079276;28;20027;-59
2022/10/12 02:17:47;;;;;;;8.38;5.72;;;;;;;14.31;100.00;99014.16;5092329;28;20107;-58
2022/10/12 02:20:16;;;;;;;9.57;5.57;;;;;;;13.98;100.00;98967.81;5092775;28;20127;-58
2022/10/12 02:22:42;;;;;;;8.18;5.38;;;;;;;14.27;100.00;99008.44;5092148;28;20015;-58
2022/10/12 02:25:10;;;;;;;9.90;5.75;;;;;;;14.28;100.00;99020.56;5097252;28;20076;-58
2022/10/12 02:27:41;;;;;;;8.25;5.18;;;;;;;14.23;100.00;99021.00;5087509;28;20020;-58
2022/10/12 02:30:07;;;;;;;10.45;6.10;;;;;;;14.25;100.00;99014.81;5113093;27;20038;-58
2022/10/12 02:32:40;;;;;;;9.70;5.55;;;;;;;13.98;100.00;98980.91;5092614;27;20115;-57
2022/10/12 02:35:17;;;;;;;8.25;5.38;;;;;;;14.23;100.00;99013.16;5088457;28;20028;-58
2022/10/12 02:37:43;;;;;;;9.00;5.72;;;;;;;14.26;100.00;99019.09;5080416;28;20033;-58
2022/10/12 02:40:28;;;;;;;8.63;5.57;;;;;;;14.32;100.00;99013.19;5091100;28;20840;-59
2022/10/12 02:43:04;;;;;;;11.45;5.90;;;;;;;14.29;100.00;99008.28;5088386;28;20015;-59
2022/10/12 02:45:30;;;;;;;10.13;5.53;;;;;;;14.32;100.00;99014.00;5098984;28;20039;-58
2022/10/12 02:47:57;;;;;;;9.75;5.45;;;;;;;14.31;100.00;99011.56;5096655;28;20303;-57
2022/10/12 02:50:23;;;;;;;8.85;5.65;;;;;;;14.32;100.00;99016.63;5089012;28;20043;-60
2022/10/12 02:52:49;;;;;;;8.90;5.80;;;;;;;14.36;100.00;99017.13;5089570;28;20056;-59
2022/10/12 02:55:15;;;;;;;9.15;5.57;;;;;;;14.08;100.00;98972.91;5095185;28;20059;-58
2022/10/12 02:57:40;;;;;;;10.43;5.82;;;;;;;14.27;100.00;99013.66;5090678;28;20036;-58
2022/10/12 03:00:06;;;;;;;8.10;5.22;;;;;;;14.27;100.00;99020.69;5095055;27;20032;-58
2022/10/12 03:02:32;;;;;;;9.02;4.97;;;;;;;14.01;100.00;98972.72;5091521;28;20049;-60
2022/10/12 03:04:57;;;;;;;8.05;5.40;;;;;;;13.99;100.00;98979.09;5095520;28;20505;-58
2022/10/12 03:07:23;;;;;;;9.45;5.63;;;;;;;14.28;100.00;99017.13;5073110;28;20016;-59
2022/10/12 03:09:49;;;;;;;8.65;5.25;;;;;;;14.03;100.00;98973.38;5089810;28;20020;-58
2022/10/12 03:12:14;;;;;;;7.70;5.38;;;;;;;14.21;100.00;99012.50;5089337;28;20255;-59
2022/10/12 03:14:39;;;;;;;8.20;5.45;;;;;;;14.19;100.00;99003.19;5087621;28;20572;-59
2022/10/12 03:17:05;;;;;;;10.13;5.20;;;;;;;14.24;100.00;99011.38;5092249;27;20093;-59
2022/10/12 03:19:30;;;;;;;10.35;5.53;;;;;;;14.15;100.00;99015.75;5078074;28;20099;-58
2022/10/12 03:21:56;;;;;;;10.32;5.20;;;;;;;14.12;100.00;99005.59;5089067;28;20548;-57
2022/10/12 03:24:21;;;;;;;7.20;4.63;;;;;;;14.17;100.00;99013.81;5095893;28;20371;-59
2022/10/12 03:26:46;;;;;;;9.77;5.32;;;;;;;14.15;100.00;99005.31;5091734;28;20043;-59
2022/10/12 03:29:12;;;;;;;11.95;5.53;;;;;;;14.10;100.00;98991.06;5073862;28;20187;-58
2022/10/12 03:31:37;;;;;;;9.43;5.03;;;;;;;14.21;100.00;99009.88;5076905;28;20036;-57
2022/10/12 03:34:03;;;;;;;9.57;5.40;;;;;;;13.99;100.00;98974.69;5072687;28;20028;-59
2022/10/12 03:36:29;;;;;;;8.65;5.15;;;;;;;14.16;100.00;99009.53;5087829;28;20543;-58
2022/10/12 03:38:55;;;;;;;9.20;5.00;;;;;;;14.24;100.00;99011.38;5086383;27;20031;-58
2022/10/12 03:41:20;;;;;;;11.93;5.60;;;;;;;14.11;100.00;99006.59;5108236;27;20032;-59
2022/10/12 03:43:45;;;;;;;8.68;5.13;;;;;;;13.88;100.00;98969.72;5088317;28;20047;-58
2022/10/12 03:46:11;;;;;;;8.02;5.20;;;;;;;14.02;100.00;98994.47;5079642;28;20031;-58
2022/10/12 03:48:36;;;;;;;7.93;5.43;;;;;;;13.79;100.00;98970.69;5101703;27;20406;-60
2022/10/12 03:51:02;;;;;;;11.73;5.60;;;;;;;13.96;100.00;99016.84;5090805;28;20062;-58
2022/10/12 03:53:28;;;;;;;8.98;5.45;;;;;;;13.94;100.00;99010.91;5094345;28;20019;-58
2022/10/12 03:55:53;;;;;;;10.40;5.38;;;;;;;13.97;100.00;99008.00;5079093;28;20628;-58
2022/10/12 03:58:18;;;;;;;8.32;5.18;;;;;;;13.94;100.00;99016.16;5089226;28;20032;-57
2022/10/12 04:00:44;;;;;;;7.15;5.28;;;;;;;13.96;100.00;99024.69;5094100;28;20621;-61
2022/10/12 04:03:09;;;;;;;7.65;5.00;;;;;;;13.96;100.00;99027.28;5071998;28;20237;-59
2022/10/12 04:05:35;;;;;;;8.20;5.55;;;;;;;13.92;100.00;99020.72;5082606;28;20649;-58
2022/10/12 04:08:01;;;;;;;11.27;5.13;;;;;;;13.87;100.00;99011.72;5090940;27;20677;-57
2022/10/12 04:10:26;;;;;;;9.45;5.15;;;;;;;13.89;100.00;99021.06;5077637;28;20618;-59
2022/10/12 04:12:51;;;;;;;8.98;5.35;;;;;;;13.85;100.00;99022.31;5084299;27;20657;-60
2022/10/12 04:15:17;;;;;;;11.75;5.57;;;;;;;13.90;100.00;99030.50;5097119;28;20034;-57
2022/10/12 04:17:43;;;;;;;10.55;5.43;;;;;;;13.86;100.00;99029.19;5086424;28;20497;-57
2022/10/12 04:20:10;;;;;;;9.88;5.93;;;;;;;13.90;100.00;99030.50;5097356;27;20027;-60
2022/10/12 04:22:35;;;;;;;8.15;5.03;;;;;;;13.99;100.00;99020.94;5073445;28;20084;-58
2022/10/12 04:25:01;;;;;;;7.65;5.32;;;;;;;13.93;100.00;99016.34;5079351;28;20035;-58
2022/10/12 04:27:26;;;;;;;9.35;5.80;;;;;;;13.86;100.00;99020.53;5097197;28;20035;-58
2022/10/12 04:29:52;;;;;;;11.55;5.32;;;;;;;13.77;100.00;99019.69;5095279;28;20514;-61
2022/10/12 04:32:17;;;;;;;11.23;5.60;;;;;;;13.92;100.00;99030.38;5093136;28;20027;-59
2022/10/12 04:34:42;;;;;;;9.68;5.15;;;;;;;13.87;100.00;99022.16;5091665;28;20107;-58
2022/10/12 04:37:08;;;;;;;11.05;5.35;;;;;;;13.89;100.00;99031.50;5091144;28;20097;-59
2022/10/12 04:39:33;;;;;;;8.13;4.85;;;;;;;13.88;100.00;99029.03;5075798;28;20054;-59
2022/10/12 04:41:59;;;;;;;8.52;5.30;;;;;;;13.91;100.00;99031.31;5076797;28;20096;-59
2022/10/12 04:44:24;;;;;;;9.40;5.22;;;;;;;13.77;100.00;99023.09;5086648;28;20040;-59
2022/10/12 04:46:50;;;;;;;8.70;5.22;;;;;;;13.78;100.00;99023.91;5092581;27;21347;-59
2022/10/12 04:49:15;;;;;;;8.65;5.28;;;;;;;13.90;100.00;99029.72;5096631;28;20104;-58
2022/10/12 04:51:41;;;;;;;8.73;5.60;;;;;;;13.97;100.00;99033.34;5076954;28;20895;-57
2022/10/12 04:54:09;;;;;;;8.27;5.22;;;;;;;13.77;100.00;99024.91;5072554;28;20069;-59
2022/10/12 04:56:35;;;;;;;9.43;5.80;;;;;;;13.75;100.00;99029.47;5091126;27;20498;-60
2022/10/12 04:59:00;;;;;;;7.57;5.75;;;;;;;13.51;100.00;98993.53;5093959;28;20043;-58
2022/10/12 05:01:25;;;;;;;7.80;5.47;;;;;;;13.76;100.00;99028.47;5090012;28;20397;-59
2022/10/12 05:03:51;;;;;;;9.32;5.50;;;;;;;13.86;100.00;99034.41;5078058;28;20050;-59
2022/10/12 05:06:16;;;;;;;7.57;5.13;;;;;;;13.77;100.00;99022.28;5079889;28;20072;-58
2022/10/12 05:08:42;;;;;;;9.43;5.38;;;;;;;13.86;100.00;99041.44;5091174;28;20031;-59
2022/10/12 05:11:07;;;;;;;11.18;5.47;;;;;;;13.83;100.00;99021.66;5077634;28;20470;-59
2022/10/12 05:13:33;;;;;;;7.70;5.07;;;;;;;13.95;100.00;99032.69;5095497;28;20085;-60
2022/10/12 05:15:58;;;;;;;10.85;5.55;;;;;;;13.91;100.00;99024.31;5091282;28;20047;-58
2022/10/12 05:18:23;;;;;;;8.85;5.30;;;;;;;13.91;100.00;99036.56;5092019;28;20036;-58
2022/10/12 05:20:49;;;;;;;10.55;6.20;;;;;;;13.88;100.00;99029.03;5090265;28;20664;-58
2022/10/12 05:23:14;;;;;;;9.13;5.25;;;;;;;13.92;100.00;99043.44;5088660;28;20028;-58
2022/10/12 05:25:40;;;;;;;9.50;5.45;;;;;;;13.81;100.00;99039.28;5079052;28;20731;-59
2022/10/12 05:28:06;;;;;;;8.82;5.15;;;;;;;13.89;100.00;99052.41;5076003;28;20226;-60
2022/10/12 05:30:31;;;;;;;9.07;5.28;;;;;;;13.73;100.00;99026.19;5084909;28;20034;-60
2022/10/12 05:32:57;;;;;;;10.65;5.28;;;;;;;13.74;100.00;99038.25;5076283;28;20094;-58
2022/10/12 05:35:22;;;;;;;8.02;5.22;;;;;;;13.73;100.00;99026.19;5105918;28;20478;-58
2022/10/12 05:37:48;;;;;;;7.93;5.43;;;;;;;13.76;100.00;99050.22;5092093;28;20024;-58
2022/10/12 05:40:14;;;;;;;8.35;5.57;;;;;;;13.82;100.00;99051.41;5096272;28;20028;-59
2022/10/12 05:42:39;;;;;;;9.93;5.10;;;;;;;13.86;100.00;99051.91;5067421;28;20588;-61
2022/10/12 05:45:05;;;;;;;10.60;5.05;;;;;;;13.83;100.00;99059.06;5093431;27;20080;-59
2022/10/12 05:47:31;;;;;;;8.02;5.38;;;;;;;13.77;100.00;99054.47;5086328;28;20032;-62
2022/10/12 05:49:56;;;;;;;8.38;5.07;;;;;;;13.81;100.00;99055.78;5085235;28;20021;-59
2022/10/12 05:52:22;;;;;;;7.80;4.88;;;;;;;13.88;100.00;99050.75;5083865;28;20104;-59
2022/10/12 05:54:48;;;;;;;10.38;5.32;;;;;;;13.79;100.00;99052.50;5074244;28;20051;-59
2022/10/12 05:57:14;;;;;;;9.88;5.13;;;;;;;13.83;100.00;99059.06;5093514;28;20482;-60
2022/10/12 05:59:41;;;;;;;7.30;5.35;;;;;;;13.81;100.00;99062.81;5094641;27;20015;-61
2022/10/12 06:02:06;;;;;;;9.07;5.57;;;;;;;13.79;100.00;99062.16;5093871;28;20028;-59
2022/10/12 06:04:32;;;;;;;7.78;5.20;;;;;;;13.77;100.00;99064.09;5096000;28;20035;-59
2022/10/12 06:06:57;;;;;;;10.27;5.13;;;;;;;13.88;100.00;99061.22;5100065;28;20110;-58
2022/10/12 06:09:23;;;;;;;8.10;5.30;;;;;;;13.64;100.00;99022.69;5078366;28;20504;-58
2022/10/12 06:11:49;;;;;;;9.73;5.50;;;;;;;13.82;100.00;99065.28;5098645;28;20512;-59
2022/10/12 06:14:15;;;;;;;7.63;5.13;;;;;;;13.85;100.00;99071.97;5089325;28;20016;-59
2022/10/12 06:16:40;;;;;;;8.93;5.38;;;;;;;13.86;100.00;99071.00;5103280;27;20470;-58
2022/10/12 06:19:06;;;;;;;8.25;4.90;;;;;;;13.83;100.00;99074.75;5090708;28;20486;-60
2022/10/12 06:21:31;;;;;;;9.15;6.00;;;;;;;13.81;100.00;99081.09;5093691;28;20055;-58
2022/10/12 06:23:57;;;;;;;10.48;5.63;;;;;;;13.82;100.00;99083.56;5092149;28;20046;-59
2022/10/12 06:26:23;;;;;;;8.60;5.05;;;;;;;13.82;100.00;99085.38;5086822;28;20450;-59
2022/10/12 06:28:49;;;;;;;10.40;5.40;;;;;;;13.82;100.00;99080.16;5084375;28;20047;-61
2022/10/12 06:31:14;;;;;;;8.05;5.10;;;;;;;13.87;100.00;99077.06;5075332;28;20496;-58
2022/10/12 06:33:40;;;;;;;9.88;5.47;;;;;;;13.94;100.00;99086.72;5092839;28;20035;-59
2022/10/12 06:36:05;;;;;;;11.07;5.25;;;;;;;13.93;100.00;99084.28;5091366;28;20577;-57
2022/10/12 06:38:31;;;;;;;9.82;5.53;;;;;;;13.97;100.00;99089.03;5074341;28;20452;-59
2022/10/12 06:40:56;;;;;;;11.10;5.30;;;;;;;13.95;100.00;99084.97;5089930;28;20579;-62
2022/10/12 06:43:23;;;;;;;9.48;5.18;;;;;;;13.97;100.00;99089.03;5085525;28;20050;-59
2022/10/12 06:45:48;;;;;;;9.23;5.00;;;;;;;14.03;100.00;99092.84;5094043;28;20026;-58
2022/10/12 06:48:14;;;;;;;9.15;5.15;;;;;;;14.08;100.00;99095.00;5053529;28;20024;-58
2022/10/12 06:50:40;;;;;;;8.98;5.53;;;;;;;14.07;100.00;99098.56;5109879;27;20451;-60
2022/10/12 06:53:05;;;;;;;6.72;4.75;;;;;;;14.10;100.00;99095.66;5090532;28;20030;-59
2022/10/12 06:55:30;;;;;;;8.60;4.78;;;;;;;14.16;100.00;99100.25;5085128;28;20031;-59
2022/10/12 06:57:56;;;;;;;7.47;4.82;;;;;;;14.09;100.00;99100.06;5062191;28;20039;-60
2022/10/12 07:00:22;;;;;;;8.65;4.90;;;;;;;14.20;100.00;99109.41;5090188;27;20500;-59
2022/10/12 07:02:49;;;;;;;7.65;5.10;;;;;;;14.20;100.00;99101.56;5093144;28;20035;-59
2022/10/12 07:05:15;;;;;;;8.93;4.88;;;;;;;14.33;100.00;99107.22;5088947;28;20024;-58
2022/10/12 07:07:41;;;;;;;7.65;5.03;;;;;;;14.39;100.00;99103.97;5076262;28;20042;-58
2022/10/12 07:10:07;;;;;;;9.23;5.35;;;;;;;14.34;100.00;99100.19;5083170;28;20028;-58
2022/10/12 07:12:37;;;;;;;10.68;5.03;;;;;;;14.41;100.00;99114.28;5081636;28;20493;-59
2022/10/12 07:15:04;;;;;;;10.50;5.13;;;;;;;14.42;100.00;99111.50;5080957;28;20073;-58
2022/10/12 07:17:30;;;;;;;8.45;5.07;;;;;;;14.46;100.00;99109.41;5079544;28;20517;-58
2022/10/12 07:19:55;;;;;;;9.38;5.00;;;;;;;14.51;100.00;99117.59;5090502;28;20028;-59
2022/10/12 07:22:20;;;;;;;8.77;4.75;;;;;;;14.55;100.00;99125.97;5074013;28;20023;-59
2022/10/12 07:24:46;;;;;;;8.63;5.28;;;;;;;14.60;100.00;99121.91;5088857;28;20023;-57
2022/10/12 07:27:13;;;;;;;8.50;4.47;;;;;;;14.58;100.00;99118.63;5077205;28;20082;-59
2022/10/12 07:29:38;;;;;;;7.43;4.60;;;;;;;14.41;100.00;99077.66;5089272;28;20528;-59
2022/10/12 07:32:05;;;;;;;8.15;5.22;;;;;;;14.77;100.00;99127.22;5081578;28;20110;-58
2022/10/12 07:34:30;;;;;;;8.35;5.03;;;;;;;14.81;100.00;99125.91;5086704;28;20030;-59
2022/10/12 07:36:56;;;;;;;9.15;4.57;;;;;;;14.83;100.00;99126.56;5099814;28;20028;-58
2022/10/12 07:39:22;;;;;;;9.73;5.07;;;;;;;14.70;100.00;99113.94;5085344;28;20059;-60
2022/10/12 07:41:51;;;;;;;8.48;4.55;;;;;;;14.66;100.00;99128.31;5091206;28;20132;-58
2022/10/12 07:44:18;;;;;;;7.35;4.78;;;;;;;14.76;100.00;99133.41;5093921;28;20027;-59
2022/10/12 07:46:44;;;;;;;8.57;4.82;;;;;;;14.46;100.00;99078.00;5087738;28;20020;-60
2022/10/12 07:49:13;;;;;;;8.23;4.70;;;;;;;14.75;100.00;99126.56;5093071;28;20028;-60
2022/10/12 07:51:39;;;;;;;9.48;5.05;;;;;;;14.79;100.00;99112.16;5077731;28;20050;-58
2022/10/12 07:54:05;;;;;;;9.15;4.95;;;;;;;14.76;100.00;99118.50;5093700;28;20024;-59
2022/10/12 07:56:30;;;;;;;8.90;5.28;;;;;;;14.79;100.00;99120.81;5087868;28;20019;-59
2022/10/12 07:58:57;;;;;;;9.85;4.57;;;;;;;14.82;100.00;99111.81;5086512;28;20490;-63
2022/10/12 08:01:24;;;;;;;8.85;5.00;;;;;;;14.91;100.00;99123.97;5072785;28;20631;-59
2022/10/12 08:03:50;;;;;;;7.95;5.13;;;;;;;14.91;100.00;99107.44;5073185;28;20027;-60
2022/10/12 08:06:21;;;;;;;9.18;5.00;;;;;;;14.90;100.00;99111.84;5076889;28;20027;-58
2022/10/12 08:08:47;;;;;;;7.13;4.95;;;;;;;14.94;100.00;99120.22;5083549;27;20115;-58
2022/10/12 08:11:13;;;;;;;8.50;4.55;;;;;;;14.97;100.00;99119.91;5071546;28;20046;-60
2022/10/12 08:13:39;;;;;;;8.98;5.38;;;;;;;14.93;100.00;99114.16;5079091;28;20034;-61
2022/10/12 08:16:08;;;;;;;8.73;4.90;;;;;;;14.95;100.00;99112.19;5074267;28;20054;-60
2022/10/12 08:18:34;;;;;;;7.90;4.82;;;;;;;14.87;100.00;99103.50;5088286;28;20036;-59
2022/10/12 08:21:03;;;;;;;8.80;5.35;;;;;;;14.88;100.00;99105.16;5084853;28;20035;-61
2022/10/12 08:23:28;;;;;;;8.00;4.77;;;;;;;14.97;100.00;99110.22;5105002;27;20131;-59
2022/10/12 08:25:55;;;;;;;8.48;5.60;;;;;;;14.96;100.00;99102.53;5087763;28;20443;-59
2022/10/12 08:28:22;;;;;;;9.75;6.18;;;;;;;15.04;100.00;99109.56;5087189;28;20811;-58
2022/10/12 08:30:47;;;;;;;8.93;4.95;;;;;;;15.03;100.00;99111.38;5090655;28;20035;-58
2022/10/12 08:33:14;;;;;;;10.05;6.10;;;;;;;14.97;100.00;99112.84;5089603;28;20422;-58
2022/10/12 08:35:40;;;;;;;11.70;4.97;;;;;;;14.98;100.00;99105.81;5091081;28;20028;-62
2022/10/12 08:38:07;;;;;;;7.35;4.70;;;;;;;14.93;100.00;99111.53;5091560;28;20019;-59
2022/10/12 08:40:35;;;;;;;8.00;4.78;;;;;;;15.05;100.00;99104.19;5075953;28;20020;-58
2022/10/12 08:43:07;;;;;;;8.65;4.72;;;;;;;15.12;100.00;99102.56;5078466;28;20051;-59
2022/10/12 08:45:52;;;;;;;9.00;4.97;;;;;;;15.18;100.00;99103.72;5086664;28;20085;-59
2022/10/12 08:48:18;;;;;;;7.75;4.80;;;;;;;15.14;100.00;99099.78;5081576;28;20024;-60
2022/10/12 08:50:55;;;;;;;10.15;5.68;;;;;;;15.10;100.00;99086.19;5083097;28;20028;-59
2022/10/12 08:53:32;;;;;;;9.55;5.20;;;;;;;15.02;100.00;99073.06;5083744;28;20668;-63
2022/10/12 08:55:58;;;;;;;7.07;4.57;;;;;;;15.22;100.00;99096.34;5099466;27;20023;-59
2022/10/12 08:58:29;;;;;;;8.50;5.10;;;;;;;15.14;100.00;99087.50;5083391;28;20043;-59
2022/10/12 09:01:19;;;;;;;11.77;6.10;;;;;;;15.13;100.00;99087.66;5047126;28;20047;-60
2022/10/12 09:03:58;;;;;;;17.73;7.05;;;;;;;15.11;100.00;99089.63;5081336;28;20047;-60
2022/10/12 09:06:27;;;;;;;10.13;5.75;;;;;;;14.85;100.00;99050.47;5083426;28;20040;-60
2022/10/12 09:09:28;;;;;;;14.97;5.90;;;;;;;15.05;100.00;99080.63;5068104;28;20032;-59
2022/10/12 09:12:41;;;;;;;8.35;5.07;;;;;;;15.17;100.00;99092.41;5047973;28;20103;-61
2022/10/12 09:15:31;;;;;;;8.73;5.50;;;;;;;15.30;100.00;99088.50;5020991;28;20055;-60
2022/10/12 09:17:59;;;;;;;9.55;5.43;;;;;;;15.38;100.00;99086.69;5073576;28;20070;-60
2022/10/12 09:20:35;;;;;;;8.90;5.40;;;;;;;15.28;100.00;99072.94;5098540;28;20030;-60
2022/10/12 09:23:19;;;;;;;9.07;5.20;;;;;;;15.14;100.00;99042.97;5080505;28;20030;-62
2022/10/12 09:25:46;;;;;;;7.90;4.57;;;;;;;15.46;99.28;99077.19;5083106;28;20074;-62
2022/10/12 09:28:20;;;;;;;9.25;5.10;;;;;;;15.57;100.00;99079.50;5079971;28;20569;-60
2022/10/12 09:31:10;;;;;;;12.02;5.30;;;;;;;15.62;98.70;99074.56;5084034;28;20035;-60
2022/10/12 09:33:50;;;;;;;;;;;;;;;15.66;97.97;99075.03;5090272;28;20115;-57
2022/10/12 09:36:19;;;;;;;7.95;4.47;;;;;;;15.62;96.33;99076.38;5083965;28;19964;-59
2022/10/12 09:38:45;;;;;;;7.60;4.60;;;;;;;15.75;93.16;99084.56;5083827;28;20028;-60
2022/10/12 09:41:20;;;;;;;8.38;5.45;;;;;;;15.80;92.72;99078.84;5060652;28;20074;-60
2022/10/12 09:43:54;;;;;;;7.65;4.88;;;;;;;15.90;90.90;99082.09;5073825;28;20012;-59
2022/10/12 09:46:52;;;;;;;7.60;4.50;;;;;;;16.10;91.16;99082.53;5071341;28;20071;-59
2022/10/12 09:49:18;;;;;;;8.82;4.28;;;;;;;16.17;89.43;99078.22;5074054;28;20043;-61
2022/10/12 09:51:44;;;;;;;11.68;5.43;;;;;;;16.25;90.22;99075.59;5073976;28;20031;-59
2022/10/12 09:54:16;;;;;;;7.45;4.40;;;;;;;16.31;89.71;99080.16;5086754;28;20111;-61
2022/10/12 09:56:46;;;;;;;8.02;4.65;;;;;;;16.34;89.64;99081.63;5082232;28;20028;-60
2022/10/12 09:59:28;;;;;;;6.70;4.18;;;;;;;16.34;87.79;99081.63;5087220;28;20032;-66
2022/10/12 10:01:58;;;;;;;6.90;4.40;;;;;;;16.48;89.31;99082.69;5062765;28;20024;-62
2022/10/12 10:04:24;;;;;;;;;;;;;;;16.51;86.72;99083.19;5084737;28;20522;-59
2022/10/12 10:06:49;;;;;;;7.25;4.43;;;;;;;16.59;86.72;99079.72;5114144;27;19916;-62
2022/10/12 10:09:28;;;;;;;7.88;4.47;;;;;;;16.66;87.81;99085.88;5088986;28;20081;-59
2022/10/12 10:11:55;;;;;;;5.90;3.83;;;;;;;16.66;86.59;99079.81;5074243;28;20615;-60
2022/10/12 10:14:21;;;;;;;7.63;4.25;;;;;;;16.66;nan;99082.44;5087129;28;20062;-59
2022/10/12 10:16:51;;;;;;;7.47;4.55;;;;;;;16.65;86.35;99083.47;5092929;28;20051;-60
2022/10/12 10:19:18;;;;;;;9.55;4.32;;;;;;;16.66;85.70;99075.38;5075059;28;20040;-61
2022/10/12 10:21:43;;;;;;;7.90;4.55;;;;;;;16.78;86.97;99078.44;5087254;28;20023;-59
2022/10/12 10:24:30;;;;;;;8.27;4.68;;;;;;;16.83;86.40;99075.31;5077177;28;20059;-61
2022/10/12 10:27:04;;;;;;;9.35;4.45;;;;;;;16.87;86.33;99074.00;5072626;28;20024;-59
2022/10/12 10:29:37;;;;;;;9.10;4.95;;;;;;;16.92;84.99;99071.69;5094981;28;20839;-59
2022/10/12 10:32:10;;;;;;;8.05;4.85;;;;;;;17.00;83.65;99076.06;5095376;27;20039;-59
2022/10/12 10:34:36;;;;;;;8.70;5.45;;;;;;;17.02;83.16;99069.63;5091715;27;20024;-60
2022/10/12 10:37:03;;;;;;;9.38;5.97;;;;;;;17.13;84.43;99067.59;5097438;28;20377;-59
2022/10/12 10:39:39;;;;;;;11.70;5.90;;;;;;;17.26;83.61;99065.97;5090330;28;20024;-62
2022/10/12 10:42:16;;;;;;;10.77;6.72;;;;;;;17.29;83.42;99063.00;5073927;28;20039;-60
2022/10/12 10:44:46;;;;;;;12.55;7.28;;;;;;;17.13;83.01;99028.19;5103753;27;20030;-61
2022/10/12 10:47:12;;;;;;;11.15;7.10;;;;;;;17.16;84.04;99036.53;5090539;27;20059;-61
2022/10/12 10:49:54;;;;;;;13.98;9.30;;;;;;;17.53;84.83;99063.00;5071552;28;20118;-60
2022/10/12 10:52:27;;;;;;;25.80;15.02;;;;;;;17.38;82.63;99026.16;5079712;28;20117;-61
2022/10/12 10:55:44;;;;;;;25.00;16.13;;;;;;;17.70;81.34;99053.13;5089670;28;20103;-58
2022/10/12 10:58:37;;;;;;;25.83;16.42;;;;;;;17.75;80.39;99042.88;5060189;28;20032;-62
2022/10/12 11:01:24;;;;;;;30.08;17.42;;;;;;;17.88;79.42;99047.56;5080448;27;20054;-61
2022/10/12 11:03:55;;;;;;;24.58;17.05;;;;;;;17.92;77.90;99044.34;5061356;28;20901;-60
2022/10/12 11:06:37;;;;;;;22.58;15.75;;;;;;;17.99;78.07;99036.56;5105449;27;20023;-60
2022/10/12 11:09:17;;;;;;;22.52;14.85;;;;;;;18.10;78.53;99035.28;5088386;27;20027;-59
2022/10/12 11:11:46;;;;;;;22.98;15.07;;;;;;;18.16;78.76;99032.75;5096311;28;20028;-60
2022/10/12 11:14:20;;;;;;;23.90;16.80;;;;;;;18.28;77.51;99034.91;5090318;28;20069;-60
2022/10/12 11:16:55;;;;;;;23.30;14.05;;;;;;;18.36;76.62;99029.53;5082539;27;20049;-60
2022/10/12 11:19:36;;;;;;;25.88;13.75;;;;;;;18.37;75.18;99034.63;5077912;27;20073;-62
2022/10/12 11:22:14;;;;;;;23.13;15.07;;;;;;;18.40;74.56;99026.34;5072878;28;20032;-60
2022/10/12 11:24:47;;;;;;;20.15;13.25;;;;;;;18.43;74.21;99027.78;5076593;28;20078;-63
2022/10/12 11:27:17;;;;;;;21.88;13.70;;;;;;;18.48;75.28;99037.78;5084787;28;20028;-59
2022/10/12 11:29:43;;;;;;;22.60;13.52;;;;;;;18.49;75.50;99034.97;5071972;28;20023;-61
2022/10/12 11:32:14;;;;;;;21.73;13.30;;;;;;;18.57;75.51;99026.94;5092597;28;20093;-59
2022/10/12 11:34:48;;;;;;;29.10;14.00;;;;;;;18.61;74.63;99028.19;5088881;28;20028;-61